MTO Blagnac (VFR) : visi 10km, tempé 15/, QNH1022 (LFMP Q1019, LFBZ Q1024)

Préparer un vol

un pilote averti en vaut deux !

Carte d'approche à vue : aérodrome de Muret (LFBR)

Jour/nuit à Toulouse:
Heure GMT (UTC) :

Toulouse, soleil :

Météo France

Cartes, prévisions météo aéronautiques officielles

Windy

Visualisation météo avancée

NOTAM

Recherche route étroite

SUP AIP

Complément à l'information aéronautique

Accueil

Notamment à l'aide des outils ci-dessus, la préparation d'un vol consiste à rassembler les éléments qui permettront de connaître ses conditions en 4 dimensions.
Ces sources alimentent l'élément le plus important d'un vol : la prise de décision, qui mènera au maintien, la modification ou l'annulation d'un vol.

Cette information se trouve sur les cartes de navigation, les cartes de prévision météo, et autres publications aéronautiques.
Concernant spécifiquement l'aérodrome de Muret, l'information disponible au jour le jour consiste en ce qui suit :

  • Messages d'observation et de prévision météo : METAR à Muret, TAF à Blagnac
  • Messages d'information d'aérodrome à Muret : les NOtices TO AirMen (NOTAM)
  • L'éphéméride : nécessaire pour séparer le vol de jour du vol de nuit, les jour et nuit aéronautiques sont situés, respectivement, 30 minutes avant le lever et 30 minutes après le coucher de soleil.

Ces informations, ainsi que la carte d'approche à vue sur l'aérodrome de Muret, sont disponibles ci-contre.

METAR / TAF Muret et Blagnac

LFBR - MURET LHERM

METAR LFBR 251800Z AUTO 31006KT 9999 BKN033 OVC039 16/12 Q1021=

LFBO - TOULOUSE BLAGNAC

METAR LFBO 251930Z AUTO 29003KT 9999 FEW041 BKN047 15/10 Q1022 NOSIG=

TAF LFBO 251700Z 2518/2624 31008KT 9999 OVC035 BECMG 2604/2606 CAVOK BECMG 2618/2620 VRB02KT=


Source : Navigeo

NOTAM Muret


LFFA-D1403/18
Q) LFBB/QSTAH/IV/ BO/ A/000/999/4327N00116E005
A) LFBR MURET LHERM
B) 2018 Apr 16 07:00 C) 2018 Apr 28 18:00
E) HORAIRES DE CONTROLE D'AERODROME
LUN-VEN : 0700-1800
SAM ET DIM NON DISPONIBLE.


LFFA-D1473/18
Q) LFBB/QFALB/IV/NBO/ A/000/999/4327N00116E005
A) LFBR MURET LHERM
B) 2018 Apr 16 00:00 C) 2018 Oct 16 23:59
D) MON-FRI SR-0630
EXC MAY 1 8 10 21 AUG 15
E) AERODROME RESERVE AUX AERONEFS BASES


LFFA-D1480/18
Q) LFBB/QLPAS/IV/ BO/ A/000/999/4327N00116E005
A) LFBR MURET LHERM
B) 2018 Apr 13 12:59 C) 2018 May 15 18:00
E) PAPI RWY 12 HORS SERVICE


LFFA-D1482/18
Q) LFBB/QMRLC/IV/NBO/ A/000/999/4327N00116E005
A) LFBR MURET LHERM
B) 2018 Apr 13 13:50 C) 2018 May 15 18:00
E) PISTE NON REVETUE AVION FERMEE

Source : Navigeo